Mount Oliver, Pennsylvania
Current Conditions -  °F | °C
As of 2:53 PM on Friday 21 Nov 2014 (Local Time) from KAGC Reporting Station
Few Clouds Few Clouds  
Wind Chill: 20°   Ceiling: Unl
Heat Index: 27°   Visibility: 10mi
Dew Point:   Wind: 6mph
Humidity: 39%   Direction: 290°WNW
Pressure: 30.44"   Gusts: NA
Location:  40.4064°N, 79.9829°W
Report Text: KAGC 211953Z 29005KT 10SM FEW043 M03/M15 A3044 RMK AO2 SLP332 T10281150
Loading
Personal Weather Stations






























Interactive Weather Map New forecast layout! Learn more

10-Day Weather Forecast

Advertisements
Track Severe Weather on mobile